Time;durP1;ratioP1;P1;durP2;ratioP2;P2;SDS_P1;SDS_P2;PMS_P1;PMS_P2;Temp;Humidity;BMP_temperature;BMP_pressure;BME280_temperature;BME280_humidity;BME280_pressure;Samples;Min_cycle;Max_cycle;Signal;HPM_P1;HPM_P2
2022/10/05 00:08:10;;;;;;;38.60;8.25;;;20.60;40.30;;;;;;21078092;28;20063;-59
2022/10/05 00:18:19;;;;;;;32.17;7.38;;;20.40;41.80;;;;;;21081146;28;20051;-61
2022/10/05 00:28:30;;;;;;;38.88;7.18;;;20.10;42.30;;;;;;21093000;28;20097;-58
2022/10/05 00:38:32;;;;;;;27.67;6.78;;;19.80;42.80;;;;;;21092143;28;20058;-58
2022/10/05 00:49:01;;;;;;;29.42;8.05;;;19.60;42.80;;;;;;21091298;28;20056;-61
2022/10/05 00:59:17;;;;;;;32.45;8.10;;;19.60;42.70;;;;;;21090869;28;20062;-58
2022/10/05 01:09:42;;;;;;;35.90;7.40;;;19.50;43.20;;;;;;21090361;28;20059;-61
2022/10/05 01:20:09;;;;;;;34.08;7.32;;;19.30;43.60;;;;;;21071459;28;20052;-64
2022/10/05 01:30:18;;;;;;;42.67;7.05;;;19.20;44.50;;;;;;21087850;28;20056;-64
2022/10/05 01:40:40;;;;;;;32.55;7.15;;;19.00;45.10;;;;;;21087688;28;20573;-62
2022/10/05 01:51:01;;;;;;;33.08;6.53;;;18.80;44.90;;;;;;21086344;28;20044;-64
2022/10/05 02:01:20;;;;;;;32.70;6.93;;;18.70;45.20;;;;;;21086627;28;20059;-64
2022/10/05 02:11:27;;;;;;;42.72;8.52;;;18.60;45.40;;;;;;21067315;28;20055;-60
2022/10/05 02:21:33;;;;;;;30.42;6.93;;;18.50;45.40;;;;;;21084129;28;20131;-62
2022/10/05 02:31:53;;;;;;;42.58;10.15;;;18.50;45.30;;;;;;21083113;28;20059;-63
2022/10/05 02:42:33;;;;;;;30.77;5.90;;;18.40;45.80;;;;;;21081331;28;20052;-64
2022/10/05 02:52:46;;;;;;;35.58;6.93;;;18.30;45.60;;;;;;21083182;28;20048;-64
2022/10/05 03:03:04;;;;;;;33.60;7.03;;;18.20;45.80;;;;;;21081476;28;20125;-63
2022/10/05 03:13:25;;;;;;;33.97;6.78;;;18.20;46.00;;;;;;21080428;28;20048;-57
2022/10/05 03:23:47;;;;;;;31.67;7.20;;;18.20;45.90;;;;;;21079796;28;20089;-59
2022/10/05 03:33:58;;;;;;;33.10;6.93;;;18.10;46.50;;;;;;20658931;28;20046;-58
2022/10/05 03:44:31;;;;;;;34.90;6.30;;;17.90;47.00;;;;;;20658539;28;20104;-58
2022/10/05 03:54:47;;;;;;;34.65;7.18;;;17.80;46.70;;;;;;20663520;28;20058;-59
2022/10/05 04:05:15;;;;;;;27.42;6.68;;;17.70;47.20;;;;;;20791113;28;20098;-61
2022/10/05 04:15:53;;;;;;;37.47;7.78;;;17.70;47.50;;;;;;21096855;28;20476;-63
2022/10/05 04:25:59;;;;;;;34.95;7.45;;;17.50;47.40;;;;;;20672874;28;20543;-58
2022/10/05 04:36:16;;;;;;;42.55;7.57;;;17.40;47.50;;;;;;20671418;28;20296;-59
2022/10/05 04:46:46;;;;;;;31.85;5.65;;;17.50;47.30;;;;;;20671030;28;20058;-60
2022/10/05 04:57:01;;;;;;;25.35;6.68;;;17.40;47.70;;;;;;20815597;28;20055;-58
2022/10/05 05:07:34;;;;;;;35.50;6.88;;;17.20;47.90;;;;;;21089767;28;20051;-57
2022/10/05 05:18:12;;;;;;;41.77;7.30;;;17.20;48.00;;;;;;21089598;28;20086;-57
2022/10/05 05:28:27;;;;;;;35.30;7.05;;;17.10;48.00;;;;;;21088658;28;20505;-60
2022/10/05 05:38:36;;;;;;;38.60;8.23;;;17.00;48.20;;;;;;21087678;28;20078;-61
2022/10/05 05:48:40;;;;;;;49.05;8.23;;;17.00;48.00;;;;;;21086700;28;20055;-59
2022/10/05 05:58:50;;;;;;;54.55;27.30;;;17.00;48.10;;;;;;21087253;28;20063;-60
2022/10/05 06:09:06;;;;;;;27.77;7.25;;;17.20;48.40;;;;;;21085229;28;20052;-59
2022/10/05 06:19:15;;;;;;;40.55;8.35;;;17.20;48.20;;;;;;21083588;28;20075;-64
2022/10/05 06:29:52;;;;;;;30.50;7.95;;;17.20;48.60;;;;;;21084074;28;20415;-65
2022/10/05 06:40:16;;;;;;;34.97;9.20;;;17.20;49.00;;;;;;21083105;28;20040;-63
2022/10/05 06:50:29;;;;;;;37.42;9.13;;;17.20;49.50;;;;;;20916502;28;20413;-64
2022/10/05 07:00:47;;;;;;;36.15;8.57;;;17.20;49.30;;;;;;20914900;28;20045;-59
2022/10/05 07:11:01;;;;;;;38.80;8.48;;;17.20;49.60;;;;;;20915390;28;20056;-59
2022/10/05 07:21:16;;;;;;;40.55;7.68;;;17.20;49.50;;;;;;20913815;28;20084;-58
2022/10/05 07:31:32;;;;;;;28.02;7.20;;;17.20;48.90;;;;;;20913268;28;20398;-60
2022/10/05 07:41:46;;;;;;;32.58;7.90;;;17.20;48.80;;;;;;20940296;28;20048;-60
2022/10/05 07:51:56;;;;;;;37.47;7.80;;;17.40;48.70;;;;;;21079481;28;20123;-59
2022/10/05 08:02:12;;;;;;;34.10;8.63;;;17.70;48.00;;;;;;21078940;28;20097;-58
2022/10/05 08:12:25;;;;;;;33.38;8.00;;;17.90;47.40;;;;;;21077576;28;20059;-58
2022/10/05 08:22:39;;;;;;;39.42;8.60;;;18.20;46.80;;;;;;21078463;28;20048;-59
2022/10/05 08:32:54;;;;;;;39.33;10.13;;;18.40;46.40;;;;;;21076850;28;20055;-58
2022/10/05 08:43:20;;;;;;;33.28;8.35;;;18.80;46.20;;;;;;21084849;28;20048;-60
2022/10/05 08:54:04;;;;;;;30.45;7.53;;;19.20;45.90;;;;;;21092820;28;20084;-59
2022/10/05 09:04:24;;;;;;;28.42;7.28;;;19.60;45.80;;;;;;20671959;28;20077;-59
2022/10/05 09:14:38;;;;;;;10.50;4.38;;;20.00;47.70;;;;;;20670584;28;20062;-62
2022/10/05 09:24:56;;;;;;;21.27;4.57;;;20.50;47.90;;;;;;20669726;28;20055;-61
2022/10/05 09:35:21;;;;;;;13.70;3.60;;;21.40;47.60;;;;;;20783145;28;20048;-77
2022/10/05 09:46:21;;;;;;;12.98;3.85;;;21.90;49.10;;;;;;21086229;28;20056;-69
2022/10/05 09:56:29;;;;;;;14.63;4.80;;;22.20;49.70;;;;;;20426003;29;20106;-72
2022/10/05 10:06:50;;;;;;;13.30;4.22;;;22.20;50.00;;;;;;20425491;29;20196;-72
2022/10/05 10:17:13;;;;;;;18.23;4.63;;;22.30;48.90;;;;;;20424659;28;20497;-66
2022/10/05 10:27:42;;;;;;;;;;;22.40;49.20;;;;;;20668614;28;20075;-68
2022/10/05 10:38:14;;;;;;;16.70;3.90;;;22.50;48.70;;;;;;20646040;28;20342;-65
2022/10/05 10:48:28;;;;;;;14.63;4.00;;;22.60;48.30;;;;;;20644894;28;20519;-61
2022/10/05 10:58:39;;;;;;;20.90;5.40;;;22.80;47.70;;;;;;20660425;28;20042;-61
2022/10/05 11:08:59;;;;;;;16.23;4.90;;;23.00;46.80;;;;;;20785070;28;20048;-60
2022/10/05 11:19:06;;;;;;;19.13;4.82;;;23.20;45.60;;;;;;21062243;28;20048;-62
2022/10/05 11:29:32;;;;;;;20.10;4.85;;;23.30;44.90;;;;;;21079745;28;20173;-64
2022/10/05 11:40:13;;;;;;;22.92;5.00;;;23.60;44.90;;;;;;21079090;28;20058;-65
2022/10/05 11:50:37;;;;;;;14.18;4.18;;;23.90;44.50;;;;;;20658870;28;20129;-66
2022/10/05 12:00:43;;;;;;;18.10;4.72;;;24.10;44.10;;;;;;20658750;28;20380;-70
2022/10/05 12:11:14;;;;;;;13.88;3.42;;;24.30;43.70;;;;;;20657463;28;20050;-67
2022/10/05 12:21:43;;;;;;;12.48;4.32;;;24.60;42.90;;;;;;20800795;28;20399;-66
2022/10/05 12:32:03;;;;;;;16.92;4.75;;;24.70;42.60;;;;;;21092150;28;20079;-63
2022/10/05 12:42:19;;;;;;;12.85;4.05;;;24.90;41.70;;;;;;21090757;28;20052;-64
2022/10/05 12:52:36;;;;;;;13.68;3.58;;;25.20;40.50;;;;;;21090639;28;20404;-66
2022/10/05 13:02:49;;;;;;;12.77;4.13;;;25.20;40.00;;;;;;21090452;28;20040;-66
2022/10/05 13:13:12;;;;;;;17.10;4.22;;;25.50;40.10;;;;;;21090557;28;20058;-64
2022/10/05 13:23:50;;;;;;;15.02;3.75;;;25.60;39.70;;;;;;21071166;28;20052;-66
2022/10/05 13:34:17;;;;;;;23.42;4.72;;;25.70;39.50;;;;;;20667534;28;20137;-63
2022/10/05 13:44:33;;;;;;;18.40;5.38;;;25.90;38.80;;;;;;20666163;28;20054;-63
2022/10/05 13:54:42;;;;;;;16.50;3.95;;;26.10;38.70;;;;;;20665265;28;20054;-65
2022/10/05 14:04:57;;;;;;;15.98;4.35;;;26.20;36.50;;;;;;20778254;28;20048;-63
2022/10/05 14:15:27;;;;;;;15.55;4.43;;;26.30;36.50;;;;;;21066544;28;20492;-65
2022/10/05 14:25:29;;;;;;;21.23;4.25;;;26.30;37.20;;;;;;21082792;28;20078;-62
2022/10/05 14:35:43;;;;;;;21.70;5.18;;;26.40;36.50;;;;;;21083089;28;20048;-61
2022/10/05 14:46:17;;;;;;;15.45;5.00;;;26.50;35.40;;;;;;21081352;28;20101;-63
2022/10/05 14:56:37;;;;;;;24.70;10.68;;;26.60;35.70;;;;;;20660680;28;20047;-64
2022/10/05 15:06:49;;;;;;;15.15;5.20;;;26.70;35.50;;;;;;20661242;28;20050;-63
2022/10/05 15:16:56;;;;;;;15.75;4.00;;;26.60;35.80;;;;;;20660173;28;20055;-61
2022/10/05 15:27:02;;;;;;;16.13;4.07;;;26.70;35.50;;;;;;20776512;28;20055;-61
2022/10/05 15:37:30;;;;;;;20.05;5.25;;;26.60;35.00;;;;;;21078594;28;20052;-61
2022/10/05 15:47:50;;;;;;;20.10;4.93;;;26.60;34.60;;;;;;21080131;28;20142;-61
2022/10/05 15:58:10;;;;;;;23.83;4.90;;;26.60;34.30;;;;;;21106901;28;20067;-64
2022/10/05 16:19:13;;;;;;;26.30;5.85;;;26.50;34.30;;;;;;21104710;28;20052;-63
2022/10/05 16:29:23;;;;;;;26.80;5.00;;;26.30;34.10;;;;;;21104670;28;20059;-65
2022/10/05 16:39:53;;;;;;;21.17;5.05;;;26.20;34.90;;;;;;21102610;28;20132;-66
2022/10/05 16:50:10;;;;;;;56.53;38.38;;;26.20;35.50;;;;;;21018703;28;20053;-63
2022/10/05 17:00:30;;;;;;;23.55;6.03;;;26.10;36.30;;;;;;21016494;28;20044;-61
2022/10/05 17:10:39;;;;;;;37.90;21.80;;;25.90;36.30;;;;;;21006334;28;20052;-61
2022/10/05 17:21:06;;;;;;;35.95;15.02;;;25.90;36.20;;;;;;21005533;28;20048;-61
2022/10/05 17:31:21;;;;;;;23.08;5.20;;;25.60;36.80;;;;;;21005185;28;20488;-64
2022/10/05 17:41:30;;;;;;;28.60;13.25;;;25.40;37.20;;;;;;21015902;28;20067;-61
2022/10/05 18:02:14;;;;;;;32.88;12.55;;;25.10;37.90;;;;;;21086011;28;20040;-61
2022/10/05 18:12:16;;;;;;;46.53;29.40;;;25.00;38.70;;;;;;21084203;28;20044;-59
2022/10/05 18:22:18;;;;;;;28.67;9.20;;;24.80;38.90;;;;;;21084520;28;20047;-62
2022/10/05 18:32:25;;;;;;;;;;;24.60;38.90;;;;;;21083585;28;20058;-59
2022/10/05 18:42:44;;;;;;;33.38;13.43;;;24.50;40.00;;;;;;21082464;28;19963;-60
2022/10/05 18:53:01;;;;;;;40.03;12.95;;;24.40;40.60;;;;;;21082204;28;20499;-60
2022/10/05 19:03:18;;;;;;;27.67;9.30;;;24.20;41.00;;;;;;21080788;28;20090;-58
2022/10/05 19:13:36;;;;;;;37.97;11.90;;;23.90;41.40;;;;;;21080291;28;20049;-59
2022/10/05 19:24:16;;;;;;;30.35;10.70;;;23.70;42.50;;;;;;21081093;28;20165;-59
2022/10/05 19:34:40;;;;;;;35.85;13.63;;;23.70;42.80;;;;;;21078951;28;20051;-61
2022/10/05 19:44:51;;;;;;;39.50;13.63;;;23.70;42.90;;;;;;21078094;28;20048;-60
2022/10/05 19:55:09;;;;;;;32.58;10.63;;;23.60;43.00;;;;;;21078081;28;20052;-60
2022/10/05 20:05:12;;;;;;;31.23;10.30;;;23.60;43.90;;;;;;21059903;28;20385;-59
2022/10/05 20:27:00;;;;;;;30.58;7.82;;;23.10;44.50;;;;;;21078021;28;20389;-60
2022/10/05 20:36:04;;;;;;;31.52;8.35;;;22.70;44.50;;;;;;21080764;28;20052;-58
2022/10/05 20:46:06;;;;;;;26.98;9.50;;;22.40;44.50;;;;;;21074298;28;20056;-60
2022/10/05 20:56:08;;;;;;;22.17;7.28;;;22.30;45.00;;;;;;21092649;28;20044;-60
2022/10/05 21:06:10;;;;;;;34.33;8.82;;;22.20;44.90;;;;;;21072449;28;20491;-59
2022/10/05 21:16:17;;;;;;;21.87;6.13;;;22.30;44.50;;;;;;21090301;28;20044;-60
2022/10/05 21:26:19;;;;;;;27.23;5.85;;;22.10;44.90;;;;;;21089210;28;20047;-60
2022/10/05 21:36:21;;;;;;;29.67;8.20;;;21.80;45.40;;;;;;21088124;28;20044;-60
2022/10/05 21:46:26;;;;;;;27.43;8.80;;;21.80;45.30;;;;;;21069182;28;20087;-59
2022/10/05 21:56:34;;;;;;;29.88;9.13;;;21.80;45.30;;;;;;21088206;28;20048;-60
2022/10/05 22:06:36;;;;;;;29.35;9.65;;;21.90;45.90;;;;;;21086297;28;20052;-59
2022/10/05 22:16:39;;;;;;;24.10;4.90;;;22.00;46.00;;;;;;21067825;28;20386;-58
2022/10/05 22:26:43;;;;;;;16.73;6.18;;;22.10;45.60;;;;;;21084368;28;20044;-58
2022/10/05 22:36:46;;;;;;;12.25;4.82;;;22.10;45.50;;;;;;21083268;28;20077;-58
2022/10/05 22:46:47;;;;;;;19.50;6.78;;;22.10;45.70;;;;;;21082737;28;20506;-57
2022/10/05 22:56:49;;;;;;;26.00;7.20;;;22.00;45.80;;;;;;21081371;28;20048;-58
2022/10/05 23:06:50;;;;;;;17.00;4.55;;;21.90;46.10;;;;;;21081345;28;20051;-59
2022/10/05 23:16:52;;;;;;;13.93;3.55;;;21.90;46.30;;;;;;21080589;28;20067;-59
2022/10/05 23:26:53;;;;;;;14.88;4.38;;;21.80;47.50;;;;;;21080406;28;20052;-58
2022/10/05 23:36:55;;;;;;;12.05;3.00;;;21.80;48.70;;;;;;21079179;28;20055;-59
2022/10/05 23:46:56;;;;;;;11.90;3.15;;;21.80;49.40;;;;;;21078838;28;20070;-59
2022/10/05 23:56:58;;;;;;;6.82;2.75;;;21.70;49.80;;;;;;21079280;28;20044;-58
